Decoded Metar for OMAL (AL AIN in UNITED ARAB EMIRATES) (IATA:N/A) | Meteo·Mobile Aviation Weather
aviador You're here:

OMAL Decoded Metar

AL AIN in UNITED ARAB EMIRATES
Report Time2018-08-18 15:00:00
UTC Time2018-08-18 15:44:40
Flight Rules vfr VFR
Wind310° at 08 kt
W.Decomp.*RWY 01: 3.9 kt HW 7 kt LCW
W.Rank310° ranks 4
Current wind is below 310° avg. (8.9)
Visibility8000 m
Phenomena:N/A
Clouds:N/A
Expected CloudBase > 12,000 ft AGL from Temp-Dew spread
CeilingNone
Temp43°C (ISA +30)
Dew Point13°C (17% RH)
Heat Index42.6°C
AAT40.9°C
QNH0997 hPa
Density Alt4,918 ft
Elevation869 ft
Report Wrong Elevation
Raw Report
METAR OMAL 181500Z 31008KT 8000 NSC 43/13 Q0997 NOSIG=

Extra information for OMAL:More info

Metar Taf Metar & Taf Last 4 Metars F.Rules Stats Wind Profile Meteogram Temp Stats Airport Information Weather charts Add Link Nearby VenuesMetar ALERT Operation Metar Decoded Social comments